Flight Track Log - Related Links

Times and Time Zones

All times are in EST time to prevent confusion due to time zone crossing. See the N2827N flight status page for this flight to view local times or setup timezone preferences in your user account.

Time Position Orientation Groundspeed Altitude Reporting Facility
EST Latitude Longitude Course Direction KTS MPH feet Rate Location/Type
Wed 16:39:00 33.5031 -81.2870 200° South  Level FlightAware Approximate
Wed 16:40:00 33.4643 -81.3037 200° South  Level FlightAware Approximate
Wed 16:41:00 33.4254 -81.3203 200° South  Level FlightAware Approximate
Wed 16:42:00 33.3866 -81.3368 200° South  Level FlightAware Approximate
Wed 16:43:00 33.3478 -81.3534 200° South  Level FlightAware Approximate
Wed 16:44:00 33.3090 -81.3700 200° South  Level FlightAware Approximate
Wed 16:45:00 33.2703 -81.3870 200° South  Level FlightAware Approximate
Wed 16:45:48 33.5511 -81.3125 200° South 134 154 6,000  Level Jacksonville Center
Wed 16:46:00 33.2334 -81.4032 200° South  Level FlightAware Approximate
Wed 16:46:48 33.5200 -81.3256 199° South 134 154 6,000  Level Jacksonville Center
Wed 16:47:00 33.1965 -81.4193 200° South  Level FlightAware Approximate
Wed 16:47:48 33.4847 -81.3411 200° South 134 154 5,900  Level Jacksonville Center
Wed 16:48:00 33.1596 -81.4355 200° South  Level FlightAware Approximate
Wed 16:48:48 33.4514 -81.3567 201° Southwest 134 154 6,000  Level Jacksonville Center
Wed 16:49:00 33.1227 -81.4516 200° South  Level FlightAware Approximate
Wed 16:49:48 33.4183 -81.3722 201° Southwest 123 142 6,100  Level Jacksonville Center
Wed 16:50:00 33.0858 -81.4677 200° South  Level FlightAware Approximate
Wed 16:50:48 33.3850 -81.3875 201° Southwest 123 142 5,900  Level Jacksonville Center
Wed 16:51:48 33.3497 -81.4031 200° South 133 153 6,000 150 Climbing Jacksonville Center
Wed 16:52:48 33.3164 -81.4186 201° Southwest 133 153 6,200  Climbing Jacksonville Center
Wed 16:53:48 33.2833 -81.4342 201° Southwest 133 153 6,000 -150 Descending Jacksonville Center
Wed 16:54:48 33.2458 -81.4494 199° South 133 153 5,900  Descending Jacksonville Center
Wed 16:55:48 33.2106 -81.4625 197° South 133 153 6,000 50 Climbing Jacksonville Center
Wed 16:56:48 33.1753 -81.4781 200° South 138 159 6,000  Level Jacksonville Center
Wed 16:57:48 33.1419 -81.4933 201° Southwest 138 159 6,000  Level Jacksonville Center
Wed 16:58:48 33.1067 -81.5089 200° South 138 159 6,000  Level Jacksonville Center
Wed 16:59:48 33.0714 -81.5217 197° South 138 159 6,000  Level Jacksonville Center
Wed 17:00:48 33.0361 -81.5372 200° South 138 159 6,000 -50 Level Jacksonville Center
Wed 17:01:48 32.9986 -81.5525 199° South 138 159 5,900 -50 Descending Jacksonville Center
Wed 17:02:48 32.9653 -81.5656 198° South 138 159 5,900 50 Level Jacksonville Center
Wed 17:03:48 32.9281 -81.5808 199° South 138 159 6,000 50 Climbing Jacksonville Center
Wed 17:04:48 32.8928 -81.5961 200° South 138 159 6,000 -50 Level Jacksonville Center
Wed 17:05:48 32.8572 -81.6117 200° South 138 159 5,900  Descending Jacksonville Center
Wed 17:06:48 32.8197 -81.6219 193° South 133 153 6,000  Climbing Jacksonville Center
Wed 17:07:48 32.7867 -81.6347 198° South 138 159 5,900 50 Descending Jacksonville Center
Wed 17:08:48 32.7492 -81.6478 196° South 138 159 6,100 100 Climbing Jacksonville Center
Wed 17:09:48 32.7158 -81.6631 201° Southwest 138 159 6,100 -100 Level Jacksonville Center
Wed 17:10:48 32.6806 -81.6808 203° Southwest 138 159 5,900 -100 Descending Jacksonville Center
Wed 17:11:48 32.6494 -81.6958 202° Southwest 133 153 5,900 50 Level Jacksonville Center
Wed 17:12:48 32.6119 -81.7136 202° Southwest 133 153 6,000 50 Climbing Jacksonville Center
Wed 17:13:48 32.5767 -81.7264 197° South 128 147 6,000  Level Jacksonville Center
Wed 17:14:48 32.5475 -81.7417 204° Southwest 128 147 6,000  Level Jacksonville Center
Wed 17:15:48 32.5122 -81.7544 197° South 128 147 6,000 50 Level Jacksonville Center
Wed 17:16:48 32.4767 -81.7697 200° South 133 153 6,100 50 Climbing Jacksonville Center
Wed 17:17:48 32.4394 -81.7872 202° Southwest 133 153 6,100  Level Jacksonville Center
Wed 17:18:48 32.4039 -81.8000 197° South 128 147 6,100 -50 Level Jacksonville Center
Wed 17:19:48 32.3706 -81.8103 195° South 128 147 6,000 -50 Descending Jacksonville Center
Wed 17:20:48 32.3333 -81.8256 199° South 133 153 6,000 -50 Level Jacksonville Center
Wed 17:21:48 32.2936 -81.8408 198° South 133 153 5,900  Descending Jacksonville Center
Wed 17:22:48 32.2561 -81.8533 196° South 138 159 6,000  Climbing Jacksonville Center
Wed 17:23:48 32.2231 -81.8686 201° Southwest 138 159 5,900 -50 Descending Jacksonville Center
Wed 17:24:48 32.1897 -81.8836 201° Southwest 138 159 5,900  Level Jacksonville Center
Wed 17:25:48 32.1500 -81.9011 200° South 138 159 5,900  Level Jacksonville Center
Wed 17:26:48 32.1147 -81.9189 203° Southwest 132 152 5,900 50 Level Jacksonville Center
Wed 17:27:48 32.0794 -81.9364 203° Southwest 132 152 6,000 50 Climbing Jacksonville Center
Wed 17:28:48 32.0439 -81.9464 193° South 137 158 6,000  Level Jacksonville Center
Wed 17:29:48 32.0064 -81.9617 199° South 150 173 6,000  Level Jacksonville Center
Wed 17:30:48 31.9650 -81.9742 194° South 150 173 6,000 -50 Level Jacksonville Center
Wed 17:31:48 31.9275 -81.9894 199° South 145 167 5,900 -250 Descending Jacksonville Center
Wed 17:32:48 31.8919 -82.0019 197° South 145 167 5,500 -350 Descending Jacksonville Center
Wed 17:33:48 31.8525 -82.0169 198° South 145 167 5,200 -300 Descending Jacksonville Center
Wed 17:34:48 31.8086 -82.0344 199° South 150 173 4,900 -150 Descending Jacksonville Center
Wed 17:35:48 31.7711 -82.0519 202° Southwest 150 173 4,900  Level Jacksonville Center
Wed 17:36:48 31.7336 -82.0644 196° South 150 173 4,900  Level Jacksonville Center
Wed 17:37:48 31.6961 -82.0794 199° South 150 173 4,900  Level Jacksonville Center
Wed 17:38:48 31.6589 -82.0944 199° South 150 173 4,900  Level Jacksonville Center
Wed 17:39:48 31.6172 -82.1119 200° South 150 173 4,900  Level Jacksonville Center
Wed 17:40:48 31.5797 -82.1292 201° Southwest 150 173 4,900  Level Jacksonville Center
Wed 17:41:48 31.5442 -82.1417 197° South 150 173 4,900  Level Jacksonville Center
Wed 17:42:48 31.5067 -82.1567 199° South 150 173 4,900 50 Level Jacksonville Center
Wed 17:43:48 31.4650 -82.1717 197° South 150 173 5,000 50 Climbing Jacksonville Center
Wed 17:44:48 31.4297 -82.1889 203° Southwest 150 173 5,000 -50 Level Jacksonville Center
Wed 17:45:48 31.3922 -82.2061 201° Southwest 151 174 4,900 -50 Descending Jacksonville Center
Wed 17:46:48 31.3547 -82.2186 196° South 156 180 4,900  Level Jacksonville Center
Wed 17:47:48 31.3128 -82.2189 180° South 156 180 4,900 50 Level Jacksonville Center
Wed 17:48:48 31.2692 -82.2194 181° South 156 180 5,000 50 Climbing Jacksonville Center
Wed 17:49:48 31.2272 -82.2194 180° South 156 180 5,000  Level Jacksonville Center
Wed 17:50:48 31.1856 -82.2200 181° South 156 180 5,000  Level Jacksonville Center
Wed 17:51:48 31.1439 -82.2203 180° South 156 180 5,000 -86 Level Jacksonville Center
Wed 17:51:58 31.1314 -82.2228 190° South 153 176 4,900 -100 Descending Jacksonville Center
Wed 17:52:48 31.1000 -82.2206 177° South 156 180 4,900  Level Jacksonville Center
Wed 17:52:52 31.0917 -82.2231 194° South 153 176 4,900  Level Jacksonville Center
Wed 17:53:48 31.0581 -82.2208 177° South 156 180 4,900  Level Jacksonville Center
Wed 17:53:53 31.0497 -82.2208 180° South 153 176 4,900  Level Jacksonville Center
Wed 17:54:48 31.0122 -82.2211 180° South 151 174 4,900  Level Jacksonville Center
Wed 17:55:48 30.9747 -82.2214 180° South 156 180 4,900  Level Jacksonville Center
Wed 17:55:49 30.9706 -82.2239 207° Southwest 149 171 4,900 100 Level Jacksonville Center
Wed 17:56:48 30.9350 -82.2242 180° South 156 180 5,000 98 Climbing Jacksonville Center
Wed 17:56:50 30.9308 -82.2242 180° South 146 168 5,000 -100 Level Jacksonville Center
Wed 17:57:48 30.8911 -82.2244 180° South 156 180 4,900 -98 Descending Jacksonville Center
Wed 17:57:51 30.8892 -82.2244 180° South 151 174 4,900  Level Jacksonville Center
Wed 17:58:48 30.8494 -82.2272 183° South 156 180 4,900  Level Jacksonville Center
Wed 17:58:51 30.8411 -82.2247 166° South 151 174 4,900 103 Level Jacksonville Center
Wed 17:59:46 30.8078 -82.2372 198° South 149 171 5,000 105 Climbing Jacksonville Center
Wed 17:59:48 30.8097 -82.2369 North 156 180 5,000 -97 Level Jacksonville Center
Wed 18:00:48 30.7703 -82.2447 190° South 156 180 4,900 -50 Descending Jacksonville Center
Wed 18:01:48 30.7283 -82.2594 197° South 145 167 4,900  Level Jacksonville Center
Wed 18:02:49 30.6908 -82.2767 202° Southwest 144 166 4,900  Level Jacksonville Center
Wed 18:03:50 30.6533 -82.2889 196° South 137 158 4,900  Level Jacksonville Center
Wed 18:04:57 30.6158 -82.3108 207° Southwest 136 157 4,900  Level Jacksonville Center
Wed 18:05:58 30.5828 -82.3353 212° Southwest 136 157 4,900  Level Jacksonville Center
Wed 18:06:53 30.5536 -82.3594 216° Southwest 139 160 4,900 52 Level Jacksonville Center
Wed 18:07:53 30.5203 -82.3861 215° Southwest 139 160 5,000  Climbing Jacksonville Center
Wed 18:08:54 30.4889 -82.4081 211° Southwest 138 159 4,900 -49 Descending Jacksonville Center
Wed 18:09:55 30.4536 -82.4322 211° Southwest 137 158 4,900 49 Level Jacksonville Center
Wed 18:10:56 30.4244 -82.4589 218° Southwest 136 157 5,000 47 Climbing Jacksonville Center
Wed 18:12:03 30.3933 -82.4881 219° Southwest 136 157 5,000  Level Jacksonville Center
Wed 18:13:04 30.3642 -82.5194 223° Southwest 136 157 5,000  Level Jacksonville Center
Wed 18:14:05 30.3411 -82.5556 234° Southwest 133 153 5,000  Level Jacksonville Center
Wed 18:15:06 30.3164 -82.5917 232° Southwest 135 155 5,000 -49 Level Jacksonville Center
Wed 18:16:07 30.2933 -82.6256 232° Southwest 137 158 4,900 -49 Descending Jacksonville Center
Wed 18:17:08 30.2517 -82.6378 194° South 160 184 4,900 99 Level Jacksonville Center
Wed 18:18:08 30.2078 -82.6353 177° South 158 182 5,100 50 Climbing Jacksonville Center
Wed 18:19:09 30.1619 -82.6331 178° South 154 177 5,000 -98 Descending Jacksonville Center
Wed 18:20:10 30.1181 -82.6333 180° South 159 183 4,900 -49 Descending Jacksonville Center
Wed 18:21:11 30.0742 -82.6308 177° South 160 184 4,900  Level Jacksonville Center
Wed 18:22:12 30.0303 -82.6311 180° South 158 182 4,900  Level Jacksonville Center
Wed 18:23:13 29.9822 -82.6289 178° South 159 183 4,900  Level Jacksonville Center
Wed 18:24:14 29.9364 -82.6267 178° South 159 183 4,900  Level Jacksonville Center
Wed 18:25:21 29.8883 -82.6267 180° South 159 183 4,900  Level Jacksonville Center
Wed 18:26:22 29.8425 -82.6219 175° South 162 186 4,900  Level Jacksonville Center
Wed 18:27:22 29.8006 -82.6197 177° South 155 178 4,900  Level Jacksonville Center
Wed 18:28:23 29.7547 -82.6175 178° South 154 177 4,900 45 Level Jacksonville Center
Wed 18:29:36 29.7047 -82.6153 178° South 153 176 5,000  Climbing Jacksonville Center
Wed 18:30:37 29.6586 -82.6106 175° South 153 176 4,900 -52 Descending Jacksonville Center
Wed 18:31:32 29.6231 -82.6058 173° South 154 177 4,900 -55 Level Jacksonville Center
Wed 18:32:26 29.5836 -82.6036 177° South 155 178 4,800 -52 Descending Jacksonville Center
Wed 18:33:27 29.5397 -82.6014 177° South 155 178 4,800 49 Level Jacksonville Center
Wed 18:34:28 29.4958 -82.6014 180° South 151 174 4,900 50 Climbing Jacksonville Center
Wed 18:35:28 29.4542 -82.5969 175° South 152 175 4,900  Level Jacksonville Center
Wed 18:36:29 29.4103 -82.5969 180° South 154 177 4,900  Level Jacksonville Center
Wed 18:37:24 29.3725 -82.5972 180° South 153 176 4,900  Level Jacksonville Center
Wed 18:38:25 29.3289 -82.5972 180° South 155 178 4,900  Level Jacksonville Center
Wed 18:39:32 29.2786 -82.5903 173° South 157 181 4,900  Level Jacksonville Center
Wed 18:40:33 29.2369 -82.5881 177° South 155 178 4,900  Level Jacksonville Center
Wed 18:41:39 29.1889 -82.5858 178° South 156 180 4,900  Level Jacksonville Center
Wed 18:42:40 29.1431 -82.5836 178° South 154 177 4,900  Level Jacksonville Center
Wed 18:43:41 29.1011 -82.5836 180° South 153 176 4,900  Level Jacksonville Center
Wed 18:44:36 29.0617 -82.5814 177° South 152 175 4,900  Level Jacksonville Center
Wed 18:45:31 29.0261 -82.5814 180° South 152 175 4,900  Level Jacksonville Center
Wed 18:46:31 28.9803 -82.5817 180° South 151 174 4,900  Level Jacksonville Center
Wed 18:47:32 28.9383 -82.5817 180° South 153 176 4,900  Level Jacksonville Center
Wed 18:48:33 28.8967 -82.5794 177° South 150 173 4,900 49 Level Jacksonville Center
Wed 18:49:34 28.8550 -82.5750 175° South 148 170 5,000  Climbing Jacksonville Center
Wed 18:50:35 28.8131 -82.5728 177° South 148 170 4,900 -49 Descending Jacksonville Center
Wed 18:51:36 28.7694 -82.5728 180° South 149 171 4,900  Level Jacksonville Center
Wed 18:52:36 28.7275 -82.5731 180° South 153 176 4,900 50 Level Jacksonville Center
Wed 18:53:37 28.6881 -82.5825 192° South 143 165 5,000 49 Climbing Jacksonville Center
Wed 18:54:38 28.6506 -82.5969 199° South 142 163 5,000 -98 Level Jacksonville Center
Wed 18:55:39 28.6108 -82.6111 197° South 144 166 4,800 -344 Descending Jacksonville Center
Wed 18:56:40 28.5692 -82.6278 199° South 154 177 4,300 -393 Descending Jacksonville Center
Wed 18:57:41 28.5275 -82.6397 194° South 157 181 4,000 -197 Descending Jacksonville Center
Wed 18:58:42 28.4897 -82.6611 206° Southwest 152 175 3,900 -98 Descending Jacksonville Center
Wed 18:59:43 28.4522 -82.6753 198° South 145 167 3,800 -181 Descending Jacksonville Center
Wed 19:02:01 28.3667 -82.7167 203° Southwest 153 176 3,300 -273 Descending Tampa TRACON
Wed 19:03:01 28.3167 -82.7333 196° South 159 183 2,900 -149 Descending Tampa TRACON
Wed 19:04:02 28.2833 -82.7500 204° Southwest 154 177 3,000 95 Climbing Tampa TRACON
Wed 19:05:07 28.2333 -82.7667 196° South 145 167 3,100 48 Climbing Tampa TRACON
Wed 19:06:07 28.2000 -82.7833 204° Southwest 147 169 3,100  Level Tampa TRACON
Wed 19:07:07 28.1667 -82.8000 204° Southwest 151 174 3,100  Level Tampa TRACON
Wed 19:09:00 28.0975 -82.7696 184° South  Level Estimated
Wed 19:16:00 27.9100 -82.6875 184° South  Level Estimated
Wed 19:17:00 27.9100 -82.6875 184° South  Level Estimated
Wed 19:18:00 27.9100 -82.6875 184° South  Level Estimated
Wed 19:19:00 27.9100 -82.6875 184° South  Level Estimated
Wed 19:20:00 27.9100 -82.6875 184° South  Level Estimated
Wed 19:21:00 27.9100 -82.6875 184° South  Level Estimated
Wed 19:22:00 27.9100 -82.6875 184° South  Level Estimated

Login

Don't have an account? Register now (free) for customized features, flight alerts, and more!